sensor_id;sensor_type;location;lat;lon;timestamp;temperature;humidity
18876;DHT22;9570;50.854;13.778;2023-05-16T00:01:53;11.40;99.90
18876;DHT22;9570;50.854;13.778;2023-05-16T00:04:19;11.40;99.90
18876;DHT22;9570;50.854;13.778;2023-05-16T00:06:45;11.30;99.90
18876;DHT22;9570;50.854;13.778;2023-05-16T00:09:11;11.30;99.90
18876;DHT22;9570;50.854;13.778;2023-05-16T00:11:37;11.30;99.90
18876;DHT22;9570;50.854;13.778;2023-05-16T00:14:02;11.40;99.90
18876;DHT22;9570;50.854;13.778;2023-05-16T00:16:28;11.40;99.90
18876;DHT22;9570;50.854;13.778;2023-05-16T00:18:54;11.30;99.90
18876;DHT22;9570;50.854;13.778;2023-05-16T00:21:22;11.30;99.90
18876;DHT22;9570;50.854;13.778;2023-05-16T00:23:47;11.30;99.90
18876;DHT22;9570;50.854;13.778;2023-05-16T00:26:13;11.20;99.90
18876;DHT22;9570;50.854;13.778;2023-05-16T00:28:38;11.30;99.90
18876;DHT22;9570;50.854;13.778;2023-05-16T00:31:04;11.30;99.90
18876;DHT22;9570;50.854;13.778;2023-05-16T00:33:30;11.30;99.90
18876;DHT22;9570;50.854;13.778;2023-05-16T00:35:55;11.30;99.90
18876;DHT22;9570;50.854;13.778;2023-05-16T00:38:21;11.20;99.90
18876;DHT22;9570;50.854;13.778;2023-05-16T00:40:46;11.30;99.90
18876;DHT22;9570;50.854;13.778;2023-05-16T00:43:12;11.30;99.90
18876;DHT22;9570;50.854;13.778;2023-05-16T00:45:37;11.20;99.90
18876;DHT22;9570;50.854;13.778;2023-05-16T00:48:03;11.30;99.90
18876;DHT22;9570;50.854;13.778;2023-05-16T00:50:28;11.30;99.90
18876;DHT22;9570;50.854;13.778;2023-05-16T00:52:54;11.30;99.90
18876;DHT22;9570;50.854;13.778;2023-05-16T00:55:20;11.30;99.90
18876;DHT22;9570;50.854;13.778;2023-05-16T00:57:46;11.40;99.90
18876;DHT22;9570;50.854;13.778;2023-05-16T01:00:11;11.40;99.90
18876;DHT22;9570;50.854;13.778;2023-05-16T01:02:39;11.30;99.90
18876;DHT22;9570;50.854;13.778;2023-05-16T01:05:06;11.30;99.90
18876;DHT22;9570;50.854;13.778;2023-05-16T01:07:33;11.30;99.90
18876;DHT22;9570;50.854;13.778;2023-05-16T01:09:59;11.30;99.90
18876;DHT22;9570;50.854;13.778;2023-05-16T01:15:26;11.30;99.90
18876;DHT22;9570;50.854;13.778;2023-05-16T01:20:52;11.20;99.90
18876;DHT22;9570;50.854;13.778;2023-05-16T01:26:18;11.20;99.90
18876;DHT22;9570;50.854;13.778;2023-05-16T01:28:44;11.10;99.90
18876;DHT22;9570;50.854;13.778;2023-05-16T01:31:11;11.10;99.90
18876;DHT22;9570;50.854;13.778;2023-05-16T01:33:36;11.10;99.90
18876;DHT22;9570;50.854;13.778;2023-05-16T01:36:23;11.10;99.90
18876;DHT22;9570;50.854;13.778;2023-05-16T01:41:29;11.10;99.90
18876;DHT22;9570;50.854;13.778;2023-05-16T01:44:00;11.10;99.90
18876;DHT22;9570;50.854;13.778;2023-05-16T01:46:30;11.00;99.90
18876;DHT22;9570;50.854;13.778;2023-05-16T01:49:04;11.10;99.90
18876;DHT22;9570;50.854;13.778;2023-05-16T01:51:32;11.00;99.90
18876;DHT22;9570;50.854;13.778;2023-05-16T01:54:03;11.10;99.90
18876;DHT22;9570;50.854;13.778;2023-05-16T01:56:30;11.10;99.90
18876;DHT22;9570;50.854;13.778;2023-05-16T01:58:57;11.10;99.90
18876;DHT22;9570;50.854;13.778;2023-05-16T02:01:23;11.00;99.90
18876;DHT22;9570;50.854;13.778;2023-05-16T02:03:49;11.00;99.90
18876;DHT22;9570;50.854;13.778;2023-05-16T02:06:15;11.00;99.90
18876;DHT22;9570;50.854;13.778;2023-05-16T02:08:40;11.00;99.90
18876;DHT22;9570;50.854;13.778;2023-05-16T02:11:06;11.00;99.90
18876;DHT22;9570;50.854;13.778;2023-05-16T02:13:31;10.80;99.90
18876;DHT22;9570;50.854;13.778;2023-05-16T02:15:57;10.90;99.90
18876;DHT22;9570;50.854;13.778;2023-05-16T02:18:22;10.80;99.90
18876;DHT22;9570;50.854;13.778;2023-05-16T02:20:48;10.80;99.90
18876;DHT22;9570;50.854;13.778;2023-05-16T02:23:14;10.90;99.90
18876;DHT22;9570;50.854;13.778;2023-05-16T02:25:39;10.90;99.90
18876;DHT22;9570;50.854;13.778;2023-05-16T02:28:05;10.90;99.90
18876;DHT22;9570;50.854;13.778;2023-05-16T02:30:31;11.00;99.90
18876;DHT22;9570;50.854;13.778;2023-05-16T02:32:56;11.00;99.90
18876;DHT22;9570;50.854;13.778;2023-05-16T02:35:22;11.00;99.90
18876;DHT22;9570;50.854;13.778;2023-05-16T02:37:47;11.00;99.90
18876;DHT22;9570;50.854;13.778;2023-05-16T02:40:13;11.00;99.90
18876;DHT22;9570;50.854;13.778;2023-05-16T02:42:39;11.00;99.90
18876;DHT22;9570;50.854;13.778;2023-05-16T02:45:05;11.00;99.90
18876;DHT22;9570;50.854;13.778;2023-05-16T02:47:30;11.10;99.90
18876;DHT22;9570;50.854;13.778;2023-05-16T02:49:56;11.10;99.90
18876;DHT22;9570;50.854;13.778;2023-05-16T02:52:21;11.10;99.90
18876;DHT22;9570;50.854;13.778;2023-05-16T02:54:48;11.20;99.90
18876;DHT22;9570;50.854;13.778;2023-05-16T02:57:13;11.20;99.90
18876;DHT22;9570;50.854;13.778;2023-05-16T02:59:39;11.30;99.90
18876;DHT22;9570;50.854;13.778;2023-05-16T03:02:04;11.30;99.90
18876;DHT22;9570;50.854;13.778;2023-05-16T03:04:30;11.30;99.90
18876;DHT22;9570;50.854;13.778;2023-05-16T03:06:55;11.40;99.90
18876;DHT22;9570;50.854;13.778;2023-05-16T03:09:21;11.40;99.90
18876;DHT22;9570;50.854;13.778;2023-05-16T03:11:46;11.50;99.90
18876;DHT22;9570;50.854;13.778;2023-05-16T03:14:12;11.50;99.90
18876;DHT22;9570;50.854;13.778;2023-05-16T03:16:38;11.60;99.90
18876;DHT22;9570;50.854;13.778;2023-05-16T03:19:04;11.60;99.90
18876;DHT22;9570;50.854;13.778;2023-05-16T03:21:30;11.60;99.90
18876;DHT22;9570;50.854;13.778;2023-05-16T03:23:56;11.70;99.90
18876;DHT22;9570;50.854;13.778;2023-05-16T03:26:22;11.70;99.90
18876;DHT22;9570;50.854;13.778;2023-05-16T03:28:48;11.70;99.90
18876;DHT22;9570;50.854;13.778;2023-05-16T03:31:15;11.70;99.90
18876;DHT22;9570;50.854;13.778;2023-05-16T03:33:41;11.70;99.90
18876;DHT22;9570;50.854;13.778;2023-05-16T03:36:07;11.80;99.90
18876;DHT22;9570;50.854;13.778;2023-05-16T03:38:32;11.80;99.90
18876;DHT22;9570;50.854;13.778;2023-05-16T03:40:58;11.80;99.90
18876;DHT22;9570;50.854;13.778;2023-05-16T03:43:23;11.80;99.90
18876;DHT22;9570;50.854;13.778;2023-05-16T03:45:49;11.80;99.90
18876;DHT22;9570;50.854;13.778;2023-05-16T03:48:14;11.90;99.90
18876;DHT22;9570;50.854;13.778;2023-05-16T03:50:40;11.80;99.90
18876;DHT22;9570;50.854;13.778;2023-05-16T03:53:06;11.80;99.90
18876;DHT22;9570;50.854;13.778;2023-05-16T03:55:31;11.80;99.90
18876;DHT22;9570;50.854;13.778;2023-05-16T03:57:57;11.90;99.90
18876;DHT22;9570;50.854;13.778;2023-05-16T04:00:22;11.90;99.90
18876;DHT22;9570;50.854;13.778;2023-05-16T04:02:48;11.80;99.90
18876;DHT22;9570;50.854;13.778;2023-05-16T04:05:13;11.80;99.90
18876;DHT22;9570;50.854;13.778;2023-05-16T04:07:39;11.80;99.90
18876;DHT22;9570;50.854;13.778;2023-05-16T04:10:05;12.00;99.90
18876;DHT22;9570;50.854;13.778;2023-05-16T04:12:31;11.80;99.90
18876;DHT22;9570;50.854;13.778;2023-05-16T04:14:57;11.80;99.90
18876;DHT22;9570;50.854;13.778;2023-05-16T04:17:22;11.80;99.90
18876;DHT22;9570;50.854;13.778;2023-05-16T04:19:48;11.80;99.90
18876;DHT22;9570;50.854;13.778;2023-05-16T04:22:14;11.90;99.90
18876;DHT22;9570;50.854;13.778;2023-05-16T04:24:39;12.00;99.90
18876;DHT22;9570;50.854;13.778;2023-05-16T04:27:05;12.10;99.90
18876;DHT22;9570;50.854;13.778;2023-05-16T04:29:33;12.00;99.90
18876;DHT22;9570;50.854;13.778;2023-05-16T04:31:59;12.00;99.90
18876;DHT22;9570;50.854;13.778;2023-05-16T04:34:25;12.10;99.90
18876;DHT22;9570;50.854;13.778;2023-05-16T04:36:54;12.10;99.90
18876;DHT22;9570;50.854;13.778;2023-05-16T04:39:20;12.20;99.90
18876;DHT22;9570;50.854;13.778;2023-05-16T04:41:46;12.20;99.90
18876;DHT22;9570;50.854;13.778;2023-05-16T04:44:11;12.20;99.90
18876;DHT22;9570;50.854;13.778;2023-05-16T04:46:36;12.30;99.90
18876;DHT22;9570;50.854;13.778;2023-05-16T04:49:02;12.30;99.90
18876;DHT22;9570;50.854;13.778;2023-05-16T04:51:28;12.30;99.90
18876;DHT22;9570;50.854;13.778;2023-05-16T04:53:54;12.30;99.90
18876;DHT22;9570;50.854;13.778;2023-05-16T04:56:19;12.30;99.90
18876;DHT22;9570;50.854;13.778;2023-05-16T04:58:45;12.20;99.90
18876;DHT22;9570;50.854;13.778;2023-05-16T05:01:11;12.30;99.90
18876;DHT22;9570;50.854;13.778;2023-05-16T05:03:36;12.40;99.90
18876;DHT22;9570;50.854;13.778;2023-05-16T05:06:02;12.40;99.90
18876;DHT22;9570;50.854;13.778;2023-05-16T05:08:28;12.30;99.90
18876;DHT22;9570;50.854;13.778;2023-05-16T05:10:55;12.30;99.90
18876;DHT22;9570;50.854;13.778;2023-05-16T05:13:20;12.30;99.90
18876;DHT22;9570;50.854;13.778;2023-05-16T05:15:46;12.30;99.90
18876;DHT22;9570;50.854;13.778;2023-05-16T05:18:11;12.20;99.90
18876;DHT22;9570;50.854;13.778;2023-05-16T05:20:37;12.10;99.90
18876;DHT22;9570;50.854;13.778;2023-05-16T05:23:03;12.00;99.90
18876;DHT22;9570;50.854;13.778;2023-05-16T05:25:28;12.00;99.90
18876;DHT22;9570;50.854;13.778;2023-05-16T05:27:54;12.00;99.90
18876;DHT22;9570;50.854;13.778;2023-05-16T05:30:19;12.10;99.90
18876;DHT22;9570;50.854;13.778;2023-05-16T05:32:45;12.20;99.90
18876;DHT22;9570;50.854;13.778;2023-05-16T05:35:10;12.20;99.90
18876;DHT22;9570;50.854;13.778;2023-05-16T05:37:36;12.30;99.90
18876;DHT22;9570;50.854;13.778;2023-05-16T05:40:01;12.40;99.90
18876;DHT22;9570;50.854;13.778;2023-05-16T05:42:28;12.50;99.90
18876;DHT22;9570;50.854;13.778;2023-05-16T05:44:53;12.60;99.90
18876;DHT22;9570;50.854;13.778;2023-05-16T05:47:19;12.50;99.90
18876;DHT22;9570;50.854;13.778;2023-05-16T05:49:45;12.60;99.90
18876;DHT22;9570;50.854;13.778;2023-05-16T05:52:11;12.40;99.90
18876;DHT22;9570;50.854;13.778;2023-05-16T05:54:36;12.30;99.90
18876;DHT22;9570;50.854;13.778;2023-05-16T05:57:02;12.40;99.90
18876;DHT22;9570;50.854;13.778;2023-05-16T05:59:27;12.30;99.90
18876;DHT22;9570;50.854;13.778;2023-05-16T06:01:53;12.20;99.90
18876;DHT22;9570;50.854;13.778;2023-05-16T06:04:19;12.30;99.90
18876;DHT22;9570;50.854;13.778;2023-05-16T06:06:45;12.30;99.90
18876;DHT22;9570;50.854;13.778;2023-05-16T06:09:11;12.50;99.90
18876;DHT22;9570;50.854;13.778;2023-05-16T06:11:38;12.50;99.90
18876;DHT22;9570;50.854;13.778;2023-05-16T06:14:03;12.50;99.90
18876;DHT22;9570;50.854;13.778;2023-05-16T06:16:29;12.40;99.90
18876;DHT22;9570;50.854;13.778;2023-05-16T06:18:55;12.60;99.90
18876;DHT22;9570;50.854;13.778;2023-05-16T06:21:20;12.60;99.90
18876;DHT22;9570;50.854;13.778;2023-05-16T06:23:46;12.70;99.90
18876;DHT22;9570;50.854;13.778;2023-05-16T06:26:11;12.70;99.90
18876;DHT22;9570;50.854;13.778;2023-05-16T06:28:37;12.50;99.90
18876;DHT22;9570;50.854;13.778;2023-05-16T06:31:02;12.40;99.90
18876;DHT22;9570;50.854;13.778;2023-05-16T06:33:28;12.20;99.90
18876;DHT22;9570;50.854;13.778;2023-05-16T06:35:53;12.10;99.90
18876;DHT22;9570;50.854;13.778;2023-05-16T06:38:19;12.20;99.90
18876;DHT22;9570;50.854;13.778;2023-05-16T06:40:45;12.30;99.90
18876;DHT22;9570;50.854;13.778;2023-05-16T06:43:10;12.20;99.90
18876;DHT22;9570;50.854;13.778;2023-05-16T06:45:36;12.20;99.90
18876;DHT22;9570;50.854;13.778;2023-05-16T06:48:02;12.40;99.90
18876;DHT22;9570;50.854;13.778;2023-05-16T06:50:28;12.40;99.90
18876;DHT22;9570;50.854;13.778;2023-05-16T06:52:53;12.50;99.90
18876;DHT22;9570;50.854;13.778;2023-05-16T06:55:19;12.60;99.90
18876;DHT22;9570;50.854;13.778;2023-05-16T06:57:44;12.60;99.90
18876;DHT22;9570;50.854;13.778;2023-05-16T07:00:10;12.60;99.90
18876;DHT22;9570;50.854;13.778;2023-05-16T07:02:36;12.30;99.90
18876;DHT22;9570;50.854;13.778;2023-05-16T07:05:01;12.30;99.90
18876;DHT22;9570;50.854;13.778;2023-05-16T07:07:27;12.20;99.90
18876;DHT22;9570;50.854;13.778;2023-05-16T07:09:52;12.10;99.90
18876;DHT22;9570;50.854;13.778;2023-05-16T07:12:18;12.10;99.90
18876;DHT22;9570;50.854;13.778;2023-05-16T07:14:44;12.00;99.90
18876;DHT22;9570;50.854;13.778;2023-05-16T07:17:09;11.90;99.90
18876;DHT22;9570;50.854;13.778;2023-05-16T07:19:35;11.80;99.90
18876;DHT22;9570;50.854;13.778;2023-05-16T07:22:01;12.00;99.90
18876;DHT22;9570;50.854;13.778;2023-05-16T07:24:26;12.00;99.90
18876;DHT22;9570;50.854;13.778;2023-05-16T07:26:52;11.80;99.90
18876;DHT22;9570;50.854;13.778;2023-05-16T07:29:17;11.80;99.90
18876;DHT22;9570;50.854;13.778;2023-05-16T07:31:43;11.80;99.90
18876;DHT22;9570;50.854;13.778;2023-05-16T07:34:09;11.90;99.90
18876;DHT22;9570;50.854;13.778;2023-05-16T07:36:35;11.90;99.90
18876;DHT22;9570;50.854;13.778;2023-05-16T07:39:01;11.80;99.90
18876;DHT22;9570;50.854;13.778;2023-05-16T07:41:27;11.80;99.90
18876;DHT22;9570;50.854;13.778;2023-05-16T07:43:53;11.70;99.90
18876;DHT22;9570;50.854;13.778;2023-05-16T07:46:18;11.40;99.90
18876;DHT22;9570;50.854;13.778;2023-05-16T07:48:44;11.50;99.90
18876;DHT22;9570;50.854;13.778;2023-05-16T07:51:09;11.40;99.90
18876;DHT22;9570;50.854;13.778;2023-05-16T07:53:34;11.40;99.90
18876;DHT22;9570;50.854;13.778;2023-05-16T07:56:00;11.40;99.90
18876;DHT22;9570;50.854;13.778;2023-05-16T07:58:26;11.40;99.90
18876;DHT22;9570;50.854;13.778;2023-05-16T08:00:52;11.40;99.90
18876;DHT22;9570;50.854;13.778;2023-05-16T08:03:17;11.50;99.90
18876;DHT22;9570;50.854;13.778;2023-05-16T08:05:43;11.50;99.90
18876;DHT22;9570;50.854;13.778;2023-05-16T08:08:08;11.50;99.90
18876;DHT22;9570;50.854;13.778;2023-05-16T08:10:34;11.40;99.90
18876;DHT22;9570;50.854;13.778;2023-05-16T08:12:59;11.50;99.90
18876;DHT22;9570;50.854;13.778;2023-05-16T08:15:26;11.40;99.90
18876;DHT22;9570;50.854;13.778;2023-05-16T08:17:56;11.30;99.90
18876;DHT22;9570;50.854;13.778;2023-05-16T08:20:21;11.40;99.90
18876;DHT22;9570;50.854;13.778;2023-05-16T08:22:47;11.40;99.90
18876;DHT22;9570;50.854;13.778;2023-05-16T08:25:12;11.50;99.90
18876;DHT22;9570;50.854;13.778;2023-05-16T08:27:38;11.60;99.90
18876;DHT22;9570;50.854;13.778;2023-05-16T08:30:04;11.60;99.90
18876;DHT22;9570;50.854;13.778;2023-05-16T08:32:30;11.50;99.90
18876;DHT22;9570;50.854;13.778;2023-05-16T08:34:55;11.30;99.90
18876;DHT22;9570;50.854;13.778;2023-05-16T08:37:21;11.30;99.90
18876;DHT22;9570;50.854;13.778;2023-05-16T08:39:46;11.30;99.90
18876;DHT22;9570;50.854;13.778;2023-05-16T08:42:12;11.30;99.90
18876;DHT22;9570;50.854;13.778;2023-05-16T08:44:37;11.40;99.90
18876;DHT22;9570;50.854;13.778;2023-05-16T08:47:19;11.50;99.90
18876;DHT22;9570;50.854;13.778;2023-05-16T08:49:47;11.60;99.90
18876;DHT22;9570;50.854;13.778;2023-05-16T08:52:13;11.40;99.90
18876;DHT22;9570;50.854;13.778;2023-05-16T08:54:42;11.40;99.90
18876;DHT22;9570;50.854;13.778;2023-05-16T08:57:08;11.50;99.90
18876;DHT22;9570;50.854;13.778;2023-05-16T08:59:34;11.50;99.90
18876;DHT22;9570;50.854;13.778;2023-05-16T09:02:00;11.50;99.90
18876;DHT22;9570;50.854;13.778;2023-05-16T09:04:26;11.30;99.90
18876;DHT22;9570;50.854;13.778;2023-05-16T09:06:52;11.10;99.90
18876;DHT22;9570;50.854;13.778;2023-05-16T09:09:17;11.20;99.90
18876;DHT22;9570;50.854;13.778;2023-05-16T09:11:43;11.10;99.90
18876;DHT22;9570;50.854;13.778;2023-05-16T09:14:09;10.80;99.90
18876;DHT22;9570;50.854;13.778;2023-05-16T09:16:35;10.70;99.90
18876;DHT22;9570;50.854;13.778;2023-05-16T09:19:01;10.60;99.90
18876;DHT22;9570;50.854;13.778;2023-05-16T09:21:29;10.60;99.90
18876;DHT22;9570;50.854;13.778;2023-05-16T09:23:56;10.70;99.90
18876;DHT22;9570;50.854;13.778;2023-05-16T09:26:26;10.60;99.90
18876;DHT22;9570;50.854;13.778;2023-05-16T09:28:53;10.60;99.90
18876;DHT22;9570;50.854;13.778;2023-05-16T09:31:24;10.60;99.90
18876;DHT22;9570;50.854;13.778;2023-05-16T09:34:01;10.70;99.90
18876;DHT22;9570;50.854;13.778;2023-05-16T09:36:26;10.70;99.90
18876;DHT22;9570;50.854;13.778;2023-05-16T09:38:52;10.80;99.90
18876;DHT22;9570;50.854;13.778;2023-05-16T09:41:20;10.80;99.90
18876;DHT22;9570;50.854;13.778;2023-05-16T09:43:46;10.90;99.90
18876;DHT22;9570;50.854;13.778;2023-05-16T09:46:15;10.90;99.90
18876;DHT22;9570;50.854;13.778;2023-05-16T09:48:44;10.80;99.90
18876;DHT22;9570;50.854;13.778;2023-05-16T09:51:11;10.70;99.90
18876;DHT22;9570;50.854;13.778;2023-05-16T09:53:37;10.70;99.90
18876;DHT22;9570;50.854;13.778;2023-05-16T09:56:10;10.70;99.90
18876;DHT22;9570;50.854;13.778;2023-05-16T09:58:37;10.70;99.90
18876;DHT22;9570;50.854;13.778;2023-05-16T10:01:04;10.90;99.90
18876;DHT22;9570;50.854;13.778;2023-05-16T10:03:31;10.90;99.90
18876;DHT22;9570;50.854;13.778;2023-05-16T10:05:56;11.10;99.90
18876;DHT22;9570;50.854;13.778;2023-05-16T10:08:24;11.10;99.90
18876;DHT22;9570;50.854;13.778;2023-05-16T10:10:51;11.00;99.90
18876;DHT22;9570;50.854;13.778;2023-05-16T10:13:22;10.90;99.90
18876;DHT22;9570;50.854;13.778;2023-05-16T10:15:49;11.00;99.90
18876;DHT22;9570;50.854;13.778;2023-05-16T10:18:17;11.00;99.90
18876;DHT22;9570;50.854;13.778;2023-05-16T10:20:46;11.10;99.90
18876;DHT22;9570;50.854;13.778;2023-05-16T10:23:17;11.20;99.90
18876;DHT22;9570;50.854;13.778;2023-05-16T10:25:44;11.00;99.90
18876;DHT22;9570;50.854;13.778;2023-05-16T10:28:10;11.10;99.90
18876;DHT22;9570;50.854;13.778;2023-05-16T10:30:39;11.30;99.90
18876;DHT22;9570;50.854;13.778;2023-05-16T10:33:05;11.30;99.90
18876;DHT22;9570;50.854;13.778;2023-05-16T10:35:33;11.30;99.90
18876;DHT22;9570;50.854;13.778;2023-05-16T10:37:59;11.30;99.90
18876;DHT22;9570;50.854;13.778;2023-05-16T10:40:26;11.20;99.90
18876;DHT22;9570;50.854;13.778;2023-05-16T10:42:56;11.20;99.90
18876;DHT22;9570;50.854;13.778;2023-05-16T10:45:22;11.20;99.90
18876;DHT22;9570;50.854;13.778;2023-05-16T10:52:59;11.40;99.90
18876;DHT22;9570;50.854;13.778;2023-05-16T10:55:35;11.10;99.90
18876;DHT22;9570;50.854;13.778;2023-05-16T10:58:02;11.00;99.90
18876;DHT22;9570;50.854;13.778;2023-05-16T11:00:28;11.00;99.90
18876;DHT22;9570;50.854;13.778;2023-05-16T11:03:04;11.00;99.90
18876;DHT22;9570;50.854;13.778;2023-05-16T11:05:30;11.00;99.90
18876;DHT22;9570;50.854;13.778;2023-05-16T11:08:05;11.10;99.90
18876;DHT22;9570;50.854;13.778;2023-05-16T11:10:31;11.10;99.90
18876;DHT22;9570;50.854;13.778;2023-05-16T11:13:02;11.20;99.90
18876;DHT22;9570;50.854;13.778;2023-05-16T11:15:31;11.30;99.90
18876;DHT22;9570;50.854;13.778;2023-05-16T11:18:13;11.50;99.90
18876;DHT22;9570;50.854;13.778;2023-05-16T11:20:39;11.50;99.90
18876;DHT22;9570;50.854;13.778;2023-05-16T11:23:22;11.40;99.90
18876;DHT22;9570;50.854;13.778;2023-05-16T11:25:52;11.30;99.90
18876;DHT22;9570;50.854;13.778;2023-05-16T11:28:18;11.10;99.90
18876;DHT22;9570;50.854;13.778;2023-05-16T11:30:50;11.10;99.90
18876;DHT22;9570;50.854;13.778;2023-05-16T11:33:17;11.20;99.90
18876;DHT22;9570;50.854;13.778;2023-05-16T11:35:43;11.40;99.90
18876;DHT22;9570;50.854;13.778;2023-05-16T11:38:23;11.40;99.90
18876;DHT22;9570;50.854;13.778;2023-05-16T11:40:49;11.30;99.90
18876;DHT22;9570;50.854;13.778;2023-05-16T11:43:17;11.10;99.90
18876;DHT22;9570;50.854;13.778;2023-05-16T11:45:43;11.00;99.90
18876;DHT22;9570;50.854;13.778;2023-05-16T11:48:09;11.10;99.90
18876;DHT22;9570;50.854;13.778;2023-05-16T11:50:35;11.00;99.90
18876;DHT22;9570;50.854;13.778;2023-05-16T11:53:01;11.00;99.90
18876;DHT22;9570;50.854;13.778;2023-05-16T11:55:29;11.10;99.90
18876;DHT22;9570;50.854;13.778;2023-05-16T11:57:56;11.20;99.90
18876;DHT22;9570;50.854;13.778;2023-05-16T12:00:22;11.30;99.90
18876;DHT22;9570;50.854;13.778;2023-05-16T12:02:50;11.40;99.90
18876;DHT22;9570;50.854;13.778;2023-05-16T12:05:16;11.50;99.90
18876;DHT22;9570;50.854;13.778;2023-05-16T12:07:43;11.70;99.90
18876;DHT22;9570;50.854;13.778;2023-05-16T12:10:11;11.60;99.90
18876;DHT22;9570;50.854;13.778;2023-05-16T12:12:43;11.70;99.90
18876;DHT22;9570;50.854;13.778;2023-05-16T12:15:10;11.80;99.90
18876;DHT22;9570;50.854;13.778;2023-05-16T12:17:37;11.90;99.90
18876;DHT22;9570;50.854;13.778;2023-05-16T12:20:04;12.00;99.90
18876;DHT22;9570;50.854;13.778;2023-05-16T12:22:38;12.00;99.90
18876;DHT22;9570;50.854;13.778;2023-05-16T12:25:29;11.90;99.90
18876;DHT22;9570;50.854;13.778;2023-05-16T12:28:03;11.90;99.90
18876;DHT22;9570;50.854;13.778;2023-05-16T12:30:32;11.90;99.90
18876;DHT22;9570;50.854;13.778;2023-05-16T12:32:58;12.00;99.90
18876;DHT22;9570;50.854;13.778;2023-05-16T12:35:25;12.10;99.90
18876;DHT22;9570;50.854;13.778;2023-05-16T12:37:54;12.10;99.90
18876;DHT22;9570;50.854;13.778;2023-05-16T12:40:20;12.20;99.90
18876;DHT22;9570;50.854;13.778;2023-05-16T12:42:49;12.20;99.90
18876;DHT22;9570;50.854;13.778;2023-05-16T12:45:16;12.30;99.90
18876;DHT22;9570;50.854;13.778;2023-05-16T12:47:42;12.30;99.90
18876;DHT22;9570;50.854;13.778;2023-05-16T12:50:09;12.20;99.90
18876;DHT22;9570;50.854;13.778;2023-05-16T12:52:36;12.20;99.90
18876;DHT22;9570;50.854;13.778;2023-05-16T12:55:01;12.30;99.90
18876;DHT22;9570;50.854;13.778;2023-05-16T12:57:27;12.30;99.90
18876;DHT22;9570;50.854;13.778;2023-05-16T12:59:53;12.30;99.90
18876;DHT22;9570;50.854;13.778;2023-05-16T13:02:18;12.50;99.90
18876;DHT22;9570;50.854;13.778;2023-05-16T13:04:43;12.40;99.90
18876;DHT22;9570;50.854;13.778;2023-05-16T13:07:09;12.50;99.90
18876;DHT22;9570;50.854;13.778;2023-05-16T13:09:36;12.60;99.90
18876;DHT22;9570;50.854;13.778;2023-05-16T13:12:02;12.60;99.90
18876;DHT22;9570;50.854;13.778;2023-05-16T13:14:27;12.60;99.90
18876;DHT22;9570;50.854;13.778;2023-05-16T13:16:53;12.50;99.90
18876;DHT22;9570;50.854;13.778;2023-05-16T13:19:18;12.30;99.90
18876;DHT22;9570;50.854;13.778;2023-05-16T13:21:44;12.20;99.90
18876;DHT22;9570;50.854;13.778;2023-05-16T13:24:09;12.20;99.90
18876;DHT22;9570;50.854;13.778;2023-05-16T13:26:34;12.30;99.90
18876;DHT22;9570;50.854;13.778;2023-05-16T13:29:00;12.30;99.90
18876;DHT22;9570;50.854;13.778;2023-05-16T13:31:26;12.30;99.90
18876;DHT22;9570;50.854;13.778;2023-05-16T13:33:52;12.30;99.90
18876;DHT22;9570;50.854;13.778;2023-05-16T13:36:17;12.30;99.90
18876;DHT22;9570;50.854;13.778;2023-05-16T13:38:43;12.20;99.90
18876;DHT22;9570;50.854;13.778;2023-05-16T13:41:08;12.30;99.90
18876;DHT22;9570;50.854;13.778;2023-05-16T13:43:34;12.40;99.90
18876;DHT22;9570;50.854;13.778;2023-05-16T13:45:59;12.50;99.90
18876;DHT22;9570;50.854;13.778;2023-05-16T13:48:25;12.60;99.90
18876;DHT22;9570;50.854;13.778;2023-05-16T13:50:50;12.60;99.90
18876;DHT22;9570;50.854;13.778;2023-05-16T13:53:17;12.40;99.90
18876;DHT22;9570;50.854;13.778;2023-05-16T13:55:43;12.40;99.90
18876;DHT22;9570;50.854;13.778;2023-05-16T13:58:08;12.40;99.90
18876;DHT22;9570;50.854;13.778;2023-05-16T14:00:34;12.60;99.90
18876;DHT22;9570;50.854;13.778;2023-05-16T14:02:59;12.50;99.90
18876;DHT22;9570;50.854;13.778;2023-05-16T14:05:25;12.70;99.90
18876;DHT22;9570;50.854;13.778;2023-05-16T14:07:50;12.60;99.90
18876;DHT22;9570;50.854;13.778;2023-05-16T14:10:16;12.40;99.90
18876;DHT22;9570;50.854;13.778;2023-05-16T14:12:41;12.40;99.90
18876;DHT22;9570;50.854;13.778;2023-05-16T14:15:08;12.30;99.90
18876;DHT22;9570;50.854;13.778;2023-05-16T14:17:33;12.20;99.90
18876;DHT22;9570;50.854;13.778;2023-05-16T14:19:59;12.20;99.90
18876;DHT22;9570;50.854;13.778;2023-05-16T14:22:24;12.20;99.90
18876;DHT22;9570;50.854;13.778;2023-05-16T14:24:50;12.10;99.90
18876;DHT22;9570;50.854;13.778;2023-05-16T14:27:15;12.10;99.90
18876;DHT22;9570;50.854;13.778;2023-05-16T14:29:41;12.10;99.90
18876;DHT22;9570;50.854;13.778;2023-05-16T14:32:09;12.00;99.90
18876;DHT22;9570;50.854;13.778;2023-05-16T14:34:35;12.00;99.90
18876;DHT22;9570;50.854;13.778;2023-05-16T14:37:00;12.10;99.90
18876;DHT22;9570;50.854;13.778;2023-05-16T14:39:26;11.90;99.90
18876;DHT22;9570;50.854;13.778;2023-05-16T14:41:51;11.80;99.90
18876;DHT22;9570;50.854;13.778;2023-05-16T14:44:17;11.80;99.90
18876;DHT22;9570;50.854;13.778;2023-05-16T14:46:43;11.90;99.90
18876;DHT22;9570;50.854;13.778;2023-05-16T14:49:09;12.00;99.90
18876;DHT22;9570;50.854;13.778;2023-05-16T14:51:35;12.10;99.90
18876;DHT22;9570;50.854;13.778;2023-05-16T14:54:00;11.90;99.90
18876;DHT22;9570;50.854;13.778;2023-05-16T14:56:26;11.90;99.90
18876;DHT22;9570;50.854;13.778;2023-05-16T14:58:52;11.80;99.90
18876;DHT22;9570;50.854;13.778;2023-05-16T15:01:18;11.70;99.90
18876;DHT22;9570;50.854;13.778;2023-05-16T15:03:44;11.60;99.90
18876;DHT22;9570;50.854;13.778;2023-05-16T15:06:10;11.70;99.90
18876;DHT22;9570;50.854;13.778;2023-05-16T15:08:35;11.80;99.90
18876;DHT22;9570;50.854;13.778;2023-05-16T15:11:02;11.70;99.90
18876;DHT22;9570;50.854;13.778;2023-05-16T15:13:28;11.60;99.90
18876;DHT22;9570;50.854;13.778;2023-05-16T15:15:53;11.50;99.90
18876;DHT22;9570;50.854;13.778;2023-05-16T15:18:20;11.40;99.90
18876;DHT22;9570;50.854;13.778;2023-05-16T15:20:46;11.60;99.90
18876;DHT22;9570;50.854;13.778;2023-05-16T15:23:11;11.70;99.90
18876;DHT22;9570;50.854;13.778;2023-05-16T15:25:36;11.50;99.90
18876;DHT22;9570;50.854;13.778;2023-05-16T15:28:02;11.70;99.90
18876;DHT22;9570;50.854;13.778;2023-05-16T15:30:27;11.80;99.90
18876;DHT22;9570;50.854;13.778;2023-05-16T15:32:53;11.70;99.90
18876;DHT22;9570;50.854;13.778;2023-05-16T15:35:18;11.70;99.90
18876;DHT22;9570;50.854;13.778;2023-05-16T15:37:44;11.80;99.90
18876;DHT22;9570;50.854;13.778;2023-05-16T15:40:10;11.70;99.90
18876;DHT22;9570;50.854;13.778;2023-05-16T15:42:35;11.80;99.90